Time,TemperatureF,DewpointF,PressureIn,WindDirection,WindDirectionDegrees,WindSpeedMPH,WindSpeedGustMPH,Humidity,HourlyPrecipIn,Conditions,Clouds,dailyrainin,SoftwareType,DateUTC
2013-03-24 00:00:00,49.9,48.0,29.82,North,351,11.5,11.5,93,0.04,RA,,0.00,WeatherDisplay:10.37,2013-03-24 05:00:00,
2013-03-24 00:05:00,49.9,48.0,29.82,NE,43,17.3,17.3,93,0.04,RA,,0.00,WeatherDisplay:10.37,2013-03-24 05:05:00,
2013-03-24 00:10:00,49.7,47.8,29.84,WNW,288,12.0,12.0,93,0.04,,,0.00,WeatherDisplay:10.37,2013-03-24 05:10:00,
2013-03-24 00:15:00,49.3,47.1,29.85,NW,304,11.5,11.5,92,0.04,,,0.00,WeatherDisplay:10.37,2013-03-24 05:15:00,
2013-03-24 00:20:00,48.9,46.7,29.85,NW,321,11.5,11.5,92,0.04,,,0.00,WeatherDisplay:10.37,2013-03-24 05:20:00,
2013-03-24 00:25:00,48.7,46.5,29.85,NNW,336,12.7,12.7,92,0.02,,,0.00,WeatherDisplay:10.37,2013-03-24 05:25:00,
2013-03-24 00:31:00,48.5,46.0,29.84,West,281,11.5,11.5,91,0.01,,,0.00,WeatherDisplay:10.37,2013-03-24 05:31:00,
2013-03-24 00:36:00,48.3,45.8,29.83,West,270,11.5,11.5,91,0.01,,,0.00,WeatherDisplay:10.37,2013-03-24 05:36:00,
2013-03-24 00:41:00,48.2,45.7,29.85,WNW,301,5.8,5.8,91,0.01,,,0.00,WeatherDisplay:10.37,2013-03-24 05:41:00,
2013-03-24 00:46:00,48.2,45.7,29.85,WNW,283,8.1,8.1,91,0.00,,,0.00,WeatherDisplay:10.37,2013-03-24 05:46:00,
2013-03-24 00:51:00,48.0,45.2,29.86,WNW,284,12.7,12.7,90,0.00,,,0.00,WeatherDisplay:10.37,2013-03-24 05:51:00,
2013-03-24 00:56:00,47.9,45.1,29.86,NW,309,10.4,10.4,90,0.00,,,0.00,WeatherDisplay:10.37,2013-03-24 05:56:00,
2013-03-24 01:01:00,47.7,44.6,29.86,WNW,287,10.4,10.4,89,0.00,,,0.00,WeatherDisplay:10.37,2013-03-24 06:01:00,
2013-03-24 01:06:00,47.3,43.9,29.88,WNW,294,7.0,7.0,88,0.00,,,0.00,WeatherDisplay:10.37,2013-03-24 06:06:00,
2013-03-24 01:11:00,47.1,44.0,29.87,NW,305,6.9,6.9,89,0.00,,,0.00,WeatherDisplay:10.37,2013-03-24 06:11:00,
2013-03-24 01:16:00,46.8,43.4,29.88,NW,307,8.1,8.1,88,0.00,,,0.00,WeatherDisplay:10.37,2013-03-24 06:16:00,
2013-03-24 01:21:00,46.5,42.8,29.89,NNE,13,11.5,11.5,87,0.00,,,0.00,WeatherDisplay:10.37,2013-03-24 06:21:00,
2013-03-24 01:26:00,46.4,42.7,29.89,NNW,340,8.1,8.1,87,0.00,,,0.00,WeatherDisplay:10.37,2013-03-24 06:26:00,
2013-03-24 01:31:00,46.3,42.9,29.89,North,359,11.5,11.5,88,0.00,,,0.00,WeatherDisplay:10.37,2013-03-24 06:31:00,
2013-03-24 01:36:00,46.1,42.4,29.89,NW,315,9.2,9.2,87,0.00,,,0.00,WeatherDisplay:10.37,2013-03-24 06:36:00,
2013-03-24 01:41:00,45.8,42.2,29.89,West,281,12.7,12.7,87,0.00,,,0.00,WeatherDisplay:10.37,2013-03-24 06:41:00,
2013-03-24 01:46:00,45.6,41.7,29.90,WNW,301,15.0,15.0,86,0.00,,,0.00,WeatherDisplay:10.37,2013-03-24 06:46:00,
2013-03-24 01:51:00,45.5,41.6,29.90,WSW,246,5.8,5.8,86,0.00,,,0.00,WeatherDisplay:10.37,2013-03-24 06:51:00,
2013-03-24 01:56:00,45.4,41.8,29.90,WNW,296,6.9,6.9,87,0.00,,,0.00,WeatherDisplay:10.37,2013-03-24 06:56:00,
2013-03-24 02:01:00,45.3,41.7,29.90,West,265,11.5,11.5,87,0.00,,,0.00,WeatherDisplay:10.37,2013-03-24 07:01:00,
2013-03-24 02:07:00,45.1,41.2,29.90,WNW,287,5.8,5.8,86,0.00,,,0.00,WeatherDisplay:10.37,2013-03-24 07:07:00,
2013-03-24 02:12:00,44.9,41.0,29.90,WNW,283,9.2,9.2,86,0.00,,,0.00,WeatherDisplay:10.37,2013-03-24 07:12:00,
2013-03-24 02:17:00,44.5,40.3,29.91,NW,305,8.0,8.0,85,0.00,,,0.00,WeatherDisplay:10.37,2013-03-24 07:17:00,
2013-03-24 02:22:00,44.1,39.6,29.91,NW,315,9.2,9.2,84,0.00,,,0.00,WeatherDisplay:10.37,2013-03-24 07:22:00,
2013-03-24 02:27:00,43.8,39.3,29.91,NNW,330,11.5,11.5,84,0.00,,,0.00,WeatherDisplay:10.37,2013-03-24 07:27:00,
2013-03-24 02:32:00,43.6,39.1,29.92,WNW,295,6.9,6.9,84,0.00,,,0.00,WeatherDisplay:10.37,2013-03-24 07:32:00,
2013-03-24 02:37:00,43.4,39.2,29.92,NW,321,11.0,11.0,85,0.00,,,0.00,WeatherDisplay:10.37,2013-03-24 07:37:00,
2013-03-24 02:42:00,43.3,38.8,29.92,NW,305,13.8,13.8,84,0.00,,,0.00,WeatherDisplay:10.37,2013-03-24 07:42:00,
2013-03-24 02:47:00,43.3,38.2,29.92,NW,321,12.7,12.7,82,0.00,,,0.00,WeatherDisplay:10.37,2013-03-24 07:47:00,
2013-03-24 02:52:00,43.2,38.4,29.92,WNW,290,13.8,13.8,83,0.00,,,0.00,WeatherDisplay:10.37,2013-03-24 07:52:00,
2013-03-24 02:57:00,43.2,38.7,29.92,WNW,288,9.2,9.2,84,0.00,,,0.00,WeatherDisplay:10.37,2013-03-24 07:57:00,
2013-03-24 03:02:00,43.3,38.8,29.92,WNW,300,9.2,9.2,84,0.00,,,0.00,WeatherDisplay:10.37,2013-03-24 08:02:00,
2013-03-24 03:07:00,43.2,37.8,29.92,NW,321,13.8,13.8,81,0.00,,,0.00,WeatherDisplay:10.37,2013-03-24 08:07:00,
2013-03-24 03:12:00,43.2,37.1,29.92,WNW,284,21.9,21.9,79,0.00,,,0.00,WeatherDisplay:10.37,2013-03-24 08:12:00,
2013-03-24 03:17:00,43.1,37.0,29.93,WNW,287,18.4,18.4,79,0.00,,,0.00,WeatherDisplay:10.37,2013-03-24 08:17:00,
2013-03-24 03:22:00,43.1,37.0,29.93,WNW,301,12.7,12.7,79,0.00,,,0.00,WeatherDisplay:10.37,2013-03-24 08:22:00,
2013-03-24 03:27:00,43.1,37.3,29.93,WNW,288,11.5,11.5,80,0.00,,,0.00,WeatherDisplay:10.37,2013-03-24 08:27:00,
2013-03-24 03:32:00,43.0,37.3,29.93,NW,323,9.2,9.2,80,0.00,,,0.00,WeatherDisplay:10.37,2013-03-24 08:32:00,
2013-03-24 03:37:00,42.9,36.5,29.93,North,1,16.0,16.0,78,0.00,,,0.00,WeatherDisplay:10.37,2013-03-24 08:37:00,
2013-03-24 03:42:00,42.8,36.1,29.93,West,264,18.4,18.4,77,0.00,,,0.00,WeatherDisplay:10.37,2013-03-24 08:42:00,
2013-03-24 03:47:00,42.7,36.3,29.94,NNW,343,13.8,13.8,78,0.00,,,0.00,WeatherDisplay:10.37,2013-03-24 08:47:00,
2013-03-24 03:52:00,42.5,36.4,29.94,NW,308,9.2,9.2,79,0.00,,,0.00,WeatherDisplay:10.37,2013-03-24 08:52:00,
2013-03-24 03:57:00,42.4,36.3,29.94,WNW,291,10.4,10.4,79,0.00,,,0.00,WeatherDisplay:10.37,2013-03-24 08:57:00,
2013-03-24 04:02:00,42.4,36.3,29.94,NW,309,11.5,11.5,79,0.00,,,0.00,WeatherDisplay:10.37,2013-03-24 09:02:00,
2013-03-24 04:08:00,42.4,36.3,29.94,NW,314,11.5,11.5,79,0.00,,,0.00,WeatherDisplay:10.37,2013-03-24 09:08:00,
2013-03-24 04:13:00,42.5,36.8,29.95,West,278,6.9,6.9,80,0.00,,,0.00,WeatherDisplay:10.37,2013-03-24 09:13:00,
2013-03-24 04:18:00,42.4,36.3,29.95,WNW,296,9.2,9.2,79,0.00,,,0.00,WeatherDisplay:10.37,2013-03-24 09:18:00,
2013-03-24 04:23:00,41.9,34.9,29.95,WNW,284,12.7,12.7,76,0.00,,,0.00,WeatherDisplay:10.37,2013-03-24 09:23:00,
2013-03-24 04:28:00,41.6,34.6,29.96,NW,309,18.4,18.4,76,0.00,,,0.00,WeatherDisplay:10.37,2013-03-24 09:28:00,
2013-03-24 04:33:00,41.3,34.3,29.96,SW,225,9.2,9.2,76,0.00,,,0.00,WeatherDisplay:10.37,2013-03-24 09:33:00,
2013-03-24 04:38:00,41.2,34.2,29.96,WNW,300,16.1,16.1,76,0.00,,,0.00,WeatherDisplay:10.37,2013-03-24 09:38:00,
2013-03-24 04:43:00,41.1,34.1,29.97,WNW,302,9.2,9.2,76,0.00,,,0.00,WeatherDisplay:10.37,2013-03-24 09:43:00,
2013-03-24 04:48:00,41.0,34.0,29.97,NW,307,12.0,12.0,76,0.00,,,0.00,WeatherDisplay:10.37,2013-03-24 09:48:00,
2013-03-24 04:53:00,40.9,33.9,29.98,West,264,13.8,13.8,76,0.00,,,0.00,WeatherDisplay:10.37,2013-03-24 09:53:00,
2013-03-24 04:58:00,40.8,33.8,29.97,NNW,333,12.7,12.7,76,0.00,,,0.00,WeatherDisplay:10.37,2013-03-24 09:58:00,
2013-03-24 05:03:00,40.7,33.7,29.98,WNW,302,3.5,3.5,76,0.00,,,0.00,WeatherDisplay:10.37,2013-03-24 10:03:00,
2013-03-24 05:08:00,40.6,33.6,29.98,West,274,9.2,9.2,76,0.00,,,0.00,WeatherDisplay:10.37,2013-03-24 10:08:00,
2013-03-24 05:13:00,40.6,33.6,29.98,NW,314,11.5,11.5,76,0.00,,,0.00,WeatherDisplay:10.37,2013-03-24 10:13:00,
2013-03-24 05:18:00,40.5,33.2,29.98,NW,315,7.0,7.0,75,0.00,,,0.00,WeatherDisplay:10.37,2013-03-24 10:18:00,
2013-03-24 05:23:00,40.3,33.0,29.98,NW,307,10.4,10.4,75,0.00,,,0.00,WeatherDisplay:10.37,2013-03-24 10:23:00,
2013-03-24 05:28:00,40.2,32.9,29.98,WNW,290,10.4,10.4,75,0.00,,,0.00,WeatherDisplay:10.37,2013-03-24 10:28:00,
2013-03-24 05:33:00,39.9,32.3,29.98,West,281,13.0,13.0,74,0.00,,,0.00,WeatherDisplay:10.37,2013-03-24 10:33:00,
2013-03-24 05:38:00,39.7,32.1,29.99,NNW,342,11.5,11.5,74,0.00,,,0.00,WeatherDisplay:10.37,2013-03-24 10:38:00,
2013-03-24 05:43:00,39.5,32.2,29.99,WNW,294,8.1,8.1,75,0.00,,,0.00,WeatherDisplay:10.37,2013-03-24 10:43:00,
2013-03-24 05:48:00,39.4,32.1,29.99,WSW,256,8.1,8.1,75,0.00,,,0.00,WeatherDisplay:10.37,2013-03-24 10:48:00,
2013-03-24 05:53:00,39.3,32.0,29.99,WNW,297,11.5,11.5,75,0.00,,,0.00,WeatherDisplay:10.37,2013-03-24 10:53:00,
2013-03-24 05:58:00,39.2,31.9,30.00,NW,313,11.5,11.5,75,0.00,,,0.00,WeatherDisplay:10.37,2013-03-24 10:58:00,
2013-03-24 06:03:00,39.2,31.9,30.00,WNW,300,11.5,11.5,75,0.00,,,0.00,WeatherDisplay:10.37,2013-03-24 11:03:00,
2013-03-24 06:08:00,39.2,31.3,30.01,WSW,253,17.3,17.3,73,0.00,,,0.00,WeatherDisplay:10.37,2013-03-24 11:08:00,
2013-03-24 06:13:00,39.3,31.4,30.01,WNW,291,12.0,12.0,73,0.00,,,0.00,WeatherDisplay:10.37,2013-03-24 11:13:00,
2013-03-24 06:18:00,39.3,30.3,30.01,NE,39,12.7,12.7,70,0.00,,,0.00,WeatherDisplay:10.37,2013-03-24 11:18:00,
2013-03-24 06:23:00,39.2,29.9,30.01,NW,319,16.1,16.1,69,0.00,,,0.00,WeatherDisplay:10.37,2013-03-24 11:23:00,
2013-03-24 06:28:00,39.2,29.9,30.01,WNW,292,6.9,6.9,69,0.00,,,0.00,WeatherDisplay:10.37,2013-03-24 11:28:00,
2013-03-24 06:33:00,39.1,29.8,30.02,WNW,286,11.0,11.0,69,0.00,,,0.00,WeatherDisplay:10.37,2013-03-24 11:33:00,
2013-03-24 06:38:00,39.2,29.5,30.02,NW,313,11.5,11.5,68,0.00,,,0.00,WeatherDisplay:10.37,2013-03-24 11:38:00,
2013-03-24 06:43:00,39.2,29.5,30.02,West,274,11.5,11.5,68,0.00,,,0.00,WeatherDisplay:10.37,2013-03-24 11:43:00,
2013-03-24 06:49:00,39.1,29.4,30.02,WNW,294,12.7,12.7,68,0.00,,,0.00,WeatherDisplay:10.37,2013-03-24 11:49:00,
2013-03-24 06:54:00,39.1,29.4,30.02,NNW,330,8.1,8.1,68,0.00,,,0.00,WeatherDisplay:10.37,2013-03-24 11:54:00,
2013-03-24 06:59:00,39.1,29.8,30.02,NNW,339,10.4,10.4,69,0.00,,,0.00,WeatherDisplay:10.37,2013-03-24 11:59:00,
2013-03-24 07:04:00,39.2,29.5,30.03,NW,309,8.1,8.1,68,0.00,CLR,,0.00,WeatherDisplay:10.37,2013-03-24 12:04:00,
2013-03-24 07:09:00,39.3,30.0,30.03,NE,40,6.9,6.9,69,0.00,CLR,,0.00,WeatherDisplay:10.37,2013-03-24 12:09:00,
2013-03-24 07:14:00,39.3,29.6,30.03,West,279,11.5,11.5,68,0.00,CLR,,0.00,WeatherDisplay:10.37,2013-03-24 12:14:00,
2013-03-24 07:19:00,39.4,29.7,30.04,NNE,12,9.2,9.2,68,0.00,CLR,,0.00,WeatherDisplay:10.37,2013-03-24 12:19:00,
2013-03-24 07:24:00,39.3,29.6,30.04,WNW,286,10.4,10.4,68,0.00,CLR,,0.00,WeatherDisplay:10.37,2013-03-24 12:24:00,
2013-03-24 07:29:00,39.2,29.9,30.05,WSW,239,9.2,9.2,69,0.00,CLR,,0.00,WeatherDisplay:10.37,2013-03-24 12:29:00,
2013-03-24 07:34:00,39.2,29.9,30.05,WNW,300,6.9,6.9,69,0.00,CLR,,0.00,WeatherDisplay:10.37,2013-03-24 12:34:00,
2013-03-24 07:39:00,39.1,29.8,30.05,WNW,295,11.0,11.0,69,0.00,CLR,,0.00,WeatherDisplay:10.37,2013-03-24 12:39:00,
2013-03-24 07:44:00,39.1,29.8,30.05,NNE,12,13.0,13.0,69,0.00,CLR,,0.00,WeatherDisplay:10.37,2013-03-24 12:44:00,
2013-03-24 07:49:00,39.0,30.0,30.06,WNW,300,5.0,5.0,70,0.00,CLR,,0.00,WeatherDisplay:10.37,2013-03-24 12:49:00,
2013-03-24 07:54:00,39.0,30.0,30.06,WNW,288,11.5,11.5,70,0.00,CLR,,0.00,WeatherDisplay:10.37,2013-03-24 12:54:00,
2013-03-24 07:59:00,38.9,29.9,30.06,West,269,9.0,9.0,70,0.00,CLR,,0.00,WeatherDisplay:10.37,2013-03-24 12:59:00,
2013-03-24 08:04:00,38.9,29.9,30.07,NNW,333,11.5,11.5,70,0.00,CLR,,0.00,WeatherDisplay:10.37,2013-03-24 13:04:00,
2013-03-24 08:09:00,38.9,29.6,30.08,NNW,330,15.0,15.0,69,0.00,CLR,,0.00,WeatherDisplay:10.37,2013-03-24 13:09:00,
2013-03-24 08:14:00,38.7,29.0,30.08,West,270,11.5,11.5,68,0.00,CLR,,0.00,WeatherDisplay:10.37,2013-03-24 13:14:00,
2013-03-24 08:19:00,38.4,28.4,30.07,WNW,290,15.0,15.0,67,0.00,CLR,,0.00,WeatherDisplay:10.37,2013-03-24 13:19:00,
2013-03-24 08:24:00,38.3,28.7,30.08,NE,48,16.1,16.1,68,0.00,CLR,,0.00,WeatherDisplay:10.37,2013-03-24 13:24:00,
2013-03-24 08:29:00,38.4,28.8,30.08,WSW,258,11.5,11.5,68,0.00,CLR,,0.00,WeatherDisplay:10.37,2013-03-24 13:29:00,
2013-03-24 08:34:00,38.6,28.6,30.08,WNW,294,17.3,17.3,67,0.00,CLR,,0.00,WeatherDisplay:10.37,2013-03-24 13:34:00,
2013-03-24 08:39:00,38.7,28.7,30.08,WSW,247,11.5,11.5,67,0.00,CLR,,0.00,WeatherDisplay:10.37,2013-03-24 13:39:00,
2013-03-24 08:44:00,38.7,28.7,30.09,WNW,294,12.7,12.7,67,0.00,CLR,,0.00,WeatherDisplay:10.37,2013-03-24 13:44:00,
2013-03-24 08:49:00,38.7,28.3,30.09,NW,307,23.0,23.0,66,0.00,CLR,,0.00,WeatherDisplay:10.37,2013-03-24 13:49:00,
2013-03-24 08:54:00,38.8,28.8,30.09,NW,315,11.0,11.0,67,0.00,CLR,,0.00,WeatherDisplay:10.37,2013-03-24 13:54:00,
2013-03-24 08:59:00,38.8,28.4,30.10,WNW,294,11.5,11.5,66,0.00,CLR,,0.00,WeatherDisplay:10.37,2013-03-24 13:59:00,
2013-03-24 09:04:00,38.9,28.5,30.11,NW,323,18.4,18.4,66,0.00,CLR,,0.00,WeatherDisplay:10.37,2013-03-24 14:04:00,
2013-03-24 09:10:00,39.1,29.1,30.11,NW,315,6.0,15.0,67,0.00,CLR,,0.00,WeatherDisplay:10.37,2013-03-24 14:10:00,
2013-03-24 09:15:00,39.2,28.8,30.11,NW,307,7.0,12.0,66,0.00,CLR,,0.00,WeatherDisplay:10.37,2013-03-24 14:15:00,
2013-03-24 09:20:00,39.1,29.1,30.11,NW,317,14.0,14.0,67,0.00,CLR,,0.00,WeatherDisplay:10.37,2013-03-24 14:20:00,
2013-03-24 09:25:00,38.8,28.8,30.11,WNW,294,8.0,20.0,67,0.00,CLR,,0.00,WeatherDisplay:10.37,2013-03-24 14:25:00,
2013-03-24 09:29:00,38.8,29.1,30.11,WSW,255,8.1,8.1,68,0.00,CLR,,0.00,WeatherDisplay:10.37,2013-03-24 14:29:00,
2013-03-24 09:35:00,39.4,30.1,30.11,WSW,253,12.7,12.7,69,0.00,CLR,,0.00,WeatherDisplay:10.37,2013-03-24 14:35:00,
2013-03-24 09:40:00,39.7,28.9,30.12,WNW,296,9.0,20.0,65,0.00,CLR,,0.00,WeatherDisplay:10.37,2013-03-24 14:40:00,
2013-03-24 09:45:00,39.6,28.8,30.12,WNW,300,7.0,14.0,65,0.00,CLR,,0.00,WeatherDisplay:10.37,2013-03-24 14:45:00,
2013-03-24 09:50:00,39.7,29.3,30.12,NW,309,10.4,10.4,66,0.00,CLR,,0.00,WeatherDisplay:10.37,2013-03-24 14:50:00,
2013-03-24 09:55:00,40.0,29.2,30.12,WNW,298,8.0,14.0,65,0.00,CLR,,0.00,WeatherDisplay:10.37,2013-03-24 14:55:00,
2013-03-24 10:00:00,40.3,29.5,30.12,WNW,294,9.0,16.0,65,0.00,CLR,,0.00,WeatherDisplay:10.37,2013-03-24 15:00:00,
2013-03-24 10:05:00,40.5,29.7,30.12,WNW,296,6.0,14.0,65,0.00,CLR,,0.00,WeatherDisplay:10.37,2013-03-24 15:05:00,
2013-03-24 10:10:00,41.1,29.1,30.13,NW,308,7.0,14.0,62,0.00,CLR,,0.00,WeatherDisplay:10.37,2013-03-24 15:10:00,
2013-03-24 10:14:00,41.7,29.2,30.13,NW,326,8.0,8.0,61,0.00,CLR,,0.00,WeatherDisplay:10.37,2013-03-24 15:14:00,
2013-03-24 10:20:00,42.4,29.9,30.13,WNW,286,13.8,13.8,61,0.00,CLR,,0.00,WeatherDisplay:10.37,2013-03-24 15:20:00,
2013-03-24 10:25:00,42.9,29.9,30.13,NW,306,6.0,15.0,60,0.00,CLR,,0.00,WeatherDisplay:10.37,2013-03-24 15:25:00,
2013-03-24 10:30:00,43.2,29.0,30.13,North,351,11.5,11.5,57,0.00,CLR,,0.00,WeatherDisplay:10.37,2013-03-24 15:30:00,
2013-03-24 10:35:00,43.5,28.4,30.13,NW,309,6.0,22.0,55,0.00,CLR,,0.00,WeatherDisplay:10.37,2013-03-24 15:35:00,
2013-03-24 10:39:00,43.4,28.7,30.13,NW,311,19.6,19.6,56,0.00,CLR,,0.00,WeatherDisplay:10.37,2013-03-24 15:39:00,
2013-03-24 10:45:00,43.5,29.3,30.13,WNW,294,16.1,16.1,57,0.00,CLR,,0.00,WeatherDisplay:10.37,2013-03-24 15:45:00,
2013-03-24 10:50:00,43.7,28.2,30.14,NW,309,10.0,23.0,54,0.00,CLR,,0.00,WeatherDisplay:10.37,2013-03-24 15:50:00,
2013-03-24 10:55:00,43.2,27.2,30.14,NW,317,10.0,18.0,53,0.00,CLR,,0.00,WeatherDisplay:10.37,2013-03-24 15:55:00,
2013-03-24 11:00:00,43.2,28.1,30.14,NW,304,8.0,16.0,55,0.00,CLR,,0.00,WeatherDisplay:10.37,2013-03-24 16:00:00,
2013-03-24 11:05:00,43.8,28.6,30.14,NW,314,9.0,20.0,55,0.00,CLR,,0.00,WeatherDisplay:10.37,2013-03-24 16:05:00,
2013-03-24 11:10:00,44.1,28.1,30.14,NW,313,9.0,18.0,53,0.00,CLR,,0.00,WeatherDisplay:10.37,2013-03-24 16:10:00,
2013-03-24 11:15:00,44.2,28.6,30.14,West,262,13.8,13.8,54,0.00,CLR,,0.00,WeatherDisplay:10.37,2013-03-24 16:15:00,
2013-03-24 11:20:00,44.5,28.0,30.15,WNW,299,12.0,16.0,52,0.00,CLR,,0.00,WeatherDisplay:10.37,2013-03-24 16:20:00,
2013-03-24 11:25:00,44.7,28.6,30.15,NW,309,8.0,22.0,53,0.00,CLR,,0.00,WeatherDisplay:10.37,2013-03-24 16:25:00,
2013-03-24 11:30:00,45.0,28.4,30.15,NW,313,9.0,17.0,52,0.00,CLR,,0.00,WeatherDisplay:10.37,2013-03-24 16:30:00,
2013-03-24 11:35:00,45.2,28.6,30.15,NW,318,6.0,18.0,52,0.00,CLR,,0.00,WeatherDisplay:10.37,2013-03-24 16:35:00,
2013-03-24 11:40:00,45.3,28.2,30.15,WNW,303,11.5,11.5,51,0.00,CLR,,0.00,WeatherDisplay:10.37,2013-03-24 16:40:00,
2013-03-24 11:45:00,45.6,29.0,30.15,NW,314,9.0,15.0,52,0.00,CLR,,0.00,WeatherDisplay:10.37,2013-03-24 16:45:00,
2013-03-24 11:49:00,45.8,28.7,30.15,NNW,333,16.1,16.1,51,0.00,CLR,,0.00,WeatherDisplay:10.37,2013-03-24 16:49:00,
2013-03-24 11:55:00,46.2,29.5,30.15,North,351,11.5,11.5,52,0.00,CLR,,0.00,WeatherDisplay:10.37,2013-03-24 16:55:00,
2013-03-24 12:00:00,46.7,28.5,30.15,NW,310,9.0,17.0,49,0.00,CLR,,0.00,WeatherDisplay:10.37,2013-03-24 17:00:00,
2013-03-24 12:04:00,46.6,28.4,30.15,WNW,288,13.0,13.0,49,0.00,CLR,,0.00,WeatherDisplay:10.37,2013-03-24 17:04:00,
2013-03-24 12:10:00,46.7,28.5,30.15,NW,314,17.3,17.3,49,0.00,CLR,,0.00,WeatherDisplay:10.37,2013-03-24 17:10:00,
2013-03-24 12:15:00,46.5,28.4,30.14,NW,306,7.0,20.0,49,0.00,CLR,,0.00,WeatherDisplay:10.37,2013-03-24 17:15:00,
2013-03-24 12:20:00,46.8,28.6,30.14,WNW,301,5.0,17.0,49,0.00,CLR,,0.00,WeatherDisplay:10.37,2013-03-24 17:20:00,
2013-03-24 12:25:00,47.3,28.6,30.14,NW,306,8.0,16.0,48,0.00,CLR,,0.00,WeatherDisplay:10.37,2013-03-24 17:25:00,
2013-03-24 12:30:00,47.6,28.3,30.14,NW,311,8.0,17.0,47,0.00,CLR,,0.00,WeatherDisplay:10.37,2013-03-24 17:30:00,
2013-03-24 12:34:00,47.6,28.3,30.14,NNW,331,13.8,13.8,47,0.00,CLR,,0.00,WeatherDisplay:10.37,2013-03-24 17:34:00,
2013-03-24 12:39:00,48.0,28.2,30.14,West,281,15.0,15.0,46,0.00,CLR,,0.00,WeatherDisplay:10.37,2013-03-24 17:39:00,
2013-03-24 12:44:00,48.4,29.1,30.14,WNW,291,11.0,11.0,47,0.00,CLR,,0.00,WeatherDisplay:10.37,2013-03-24 17:44:00,
2013-03-24 12:50:00,48.6,30.3,30.14,NW,316,15.0,15.0,49,0.00,CLR,,0.00,WeatherDisplay:10.37,2013-03-24 17:50:00,
2013-03-24 12:55:00,48.9,29.0,30.14,NW,316,6.0,13.0,46,0.00,CLR,,0.00,WeatherDisplay:10.37,2013-03-24 17:55:00,
2013-03-24 12:59:00,49.2,28.7,30.14,WNW,285,10.4,10.4,45,0.00,CLR,,0.00,WeatherDisplay:10.37,2013-03-24 17:59:00,
2013-03-24 13:05:00,49.3,28.8,30.13,West,281,17.3,17.3,45,0.00,,,0.00,WeatherDisplay:10.37,2013-03-24 18:05:00,
2013-03-24 13:10:00,49.7,29.7,30.13,North,5,11.5,11.5,46,0.00,,,0.00,WeatherDisplay:10.37,2013-03-24 18:10:00,
2013-03-24 13:15:00,49.5,28.5,30.13,NW,312,10.0,20.0,44,0.00,,,0.00,WeatherDisplay:10.37,2013-03-24 18:15:00,
2013-03-24 13:20:00,49.5,27.9,30.13,WNW,294,9.0,16.0,43,0.00,,,0.00,WeatherDisplay:10.37,2013-03-24 18:20:00,
2013-03-24 13:25:00,49.2,28.2,30.13,WNW,291,6.0,13.0,44,0.00,,,0.00,WeatherDisplay:10.37,2013-03-24 18:25:00,
2013-03-24 13:30:00,49.9,27.7,30.13,WNW,290,16.1,16.1,42,0.00,,,0.00,WeatherDisplay:10.37,2013-03-24 18:30:00,
2013-03-24 13:35:00,49.9,28.3,30.12,NNE,16,11.5,11.5,43,0.00,,,0.00,WeatherDisplay:10.37,2013-03-24 18:35:00,
2013-03-24 13:40:00,50.2,29.1,30.12,West,259,9.2,9.2,44,0.00,,,0.00,WeatherDisplay:10.37,2013-03-24 18:40:00,
2013-03-24 13:45:00,50.7,29.0,30.12,WNW,301,10.4,10.4,43,0.00,,,0.00,WeatherDisplay:10.37,2013-03-24 18:45:00,
2013-03-24 13:50:00,51.0,29.8,30.12,WNW,283,12.7,12.7,44,0.00,,,0.00,WeatherDisplay:10.37,2013-03-24 18:50:00,
2013-03-24 13:55:00,50.5,28.8,30.12,North,356,10.4,10.4,43,0.00,,,0.00,WeatherDisplay:10.37,2013-03-24 18:55:00,
2013-03-24 14:00:00,50.9,28.0,30.12,NW,310,13.0,13.0,41,0.00,,,0.00,WeatherDisplay:10.37,2013-03-24 19:00:00,
2013-03-24 14:05:00,51.2,28.9,30.12,West,276,6.9,6.9,42,0.00,,,0.00,WeatherDisplay:10.37,2013-03-24 19:05:00,
2013-03-24 14:10:00,51.6,28.0,30.12,WNW,297,11.5,11.5,40,0.00,,,0.00,WeatherDisplay:10.37,2013-03-24 19:10:00,
2013-03-24 14:15:00,51.8,28.8,30.11,NNE,20,12.7,12.7,41,0.00,,,0.00,WeatherDisplay:10.37,2013-03-24 19:15:00,
2013-03-24 14:20:00,51.8,28.2,30.12,WNW,303,11.5,11.5,40,0.00,,,0.00,WeatherDisplay:10.37,2013-03-24 19:20:00,
2013-03-24 14:25:00,51.8,28.2,30.12,NW,315,18.4,18.4,40,0.00,,,0.00,WeatherDisplay:10.37,2013-03-24 19:25:00,
2013-03-24 14:30:00,51.7,29.3,30.11,NNW,340,10.0,10.0,42,0.00,,,0.00,WeatherDisplay:10.37,2013-03-24 19:30:00,
2013-03-24 14:35:00,52.1,28.5,30.11,WNW,287,13.8,13.8,40,0.00,,,0.00,WeatherDisplay:10.37,2013-03-24 19:35:00,
2013-03-24 14:40:00,52.1,29.7,30.11,West,274,17.3,17.3,42,0.00,,,0.00,WeatherDisplay:10.37,2013-03-24 19:40:00,
2013-03-24 14:45:00,52.2,28.6,30.11,NW,316,17.3,17.3,40,0.00,,,0.00,WeatherDisplay:10.37,2013-03-24 19:45:00,
2013-03-24 14:50:00,52.2,28.6,30.10,NW,322,15.0,15.0,40,0.00,,,0.00,WeatherDisplay:10.37,2013-03-24 19:50:00,
2013-03-24 14:55:00,51.6,28.0,30.10,NNE,19,13.8,13.8,40,0.00,,,0.00,WeatherDisplay:10.37,2013-03-24 19:55:00,
2013-03-24 15:00:00,52.0,29.6,30.09,North,356,11.5,11.5,42,0.00,,,0.00,WeatherDisplay:10.37,2013-03-24 20:00:00,
2013-03-24 15:05:00,52.2,28.6,30.09,WNW,287,14.0,14.0,40,0.00,,,0.00,WeatherDisplay:10.37,2013-03-24 20:05:00,
2013-03-24 15:10:00,52.2,28.0,30.09,West,273,15.0,15.0,39,0.00,,,0.00,WeatherDisplay:10.37,2013-03-24 20:10:00,
2013-03-24 15:15:00,52.2,28.0,30.10,WNW,293,15.0,15.0,39,0.00,,,0.00,WeatherDisplay:10.37,2013-03-24 20:15:00,
2013-03-24 15:20:00,52.5,29.5,30.09,West,271,12.7,12.7,41,0.00,,,0.00,WeatherDisplay:10.37,2013-03-24 20:20:00,
2013-03-24 15:25:00,52.5,28.2,30.09,SW,228,11.5,11.5,39,0.00,,,0.00,WeatherDisplay:10.37,2013-03-24 20:25:00,
2013-03-24 15:30:00,52.8,29.1,30.09,NW,312,16.1,16.1,40,0.00,,,0.00,WeatherDisplay:10.37,2013-03-24 20:30:00,
2013-03-24 15:35:00,52.6,30.1,30.09,WNW,300,9.2,9.2,42,0.00,,,0.00,WeatherDisplay:10.37,2013-03-24 20:35:00,
2013-03-24 15:40:00,52.9,27.3,30.09,WNW,298,11.5,11.5,37,0.00,,,0.00,WeatherDisplay:10.37,2013-03-24 20:40:00,
2013-03-24 15:45:00,53.0,28.0,30.09,NNE,30,12.7,12.7,38,0.00,,,0.00,WeatherDisplay:10.37,2013-03-24 20:45:00,
2013-03-24 15:50:00,52.6,28.3,30.09,WNW,284,10.0,10.0,39,0.00,,,0.00,WeatherDisplay:10.37,2013-03-24 20:50:00,
2013-03-24 15:55:00,53.2,27.6,30.09,North,354,13.8,13.8,37,0.00,,,0.00,WeatherDisplay:10.37,2013-03-24 20:55:00,
2013-03-24 16:00:00,53.4,27.8,30.09,WNW,288,13.8,13.8,37,0.00,,,0.00,WeatherDisplay:10.37,2013-03-24 21:00:00,
2013-03-24 16:05:00,53.2,28.2,30.09,North,6,17.3,17.3,38,0.00,,,0.00,WeatherDisplay:10.37,2013-03-24 21:05:00,
2013-03-24 16:10:00,53.3,28.9,30.09,NW,321,11.5,11.5,39,0.00,,,0.00,WeatherDisplay:10.37,2013-03-24 21:10:00,
2013-03-24 16:15:00,53.1,27.5,30.08,NW,309,11.5,11.5,37,0.00,,,0.00,WeatherDisplay:10.37,2013-03-24 21:15:00,
2013-03-24 16:20:00,53.1,26.8,30.08,WNW,283,12.7,12.7,36,0.00,,,0.00,WeatherDisplay:10.37,2013-03-24 21:20:00,
2013-03-24 16:25:00,52.9,27.3,30.08,North,1,15.0,15.0,37,0.00,,,0.00,WeatherDisplay:10.37,2013-03-24 21:25:00,
2013-03-24 16:30:00,53.0,28.0,30.08,NW,322,17.3,17.3,38,0.00,,,0.00,WeatherDisplay:10.37,2013-03-24 21:30:00,
2013-03-24 16:35:00,52.9,27.3,30.08,North,5,11.5,11.5,37,0.00,,,0.00,WeatherDisplay:10.37,2013-03-24 21:35:00,
2013-03-24 16:40:00,53.4,27.8,30.07,West,278,10.4,10.4,37,0.00,,,0.00,WeatherDisplay:10.37,2013-03-24 21:40:00,
2013-03-24 16:45:00,54.0,28.3,30.07,North,5,10.4,10.4,37,0.00,,,0.00,WeatherDisplay:10.37,2013-03-24 21:45:00,
2013-03-24 16:50:00,54.2,27.8,30.07,NW,315,11.5,11.5,36,0.00,,,0.00,WeatherDisplay:10.37,2013-03-24 21:50:00,
2013-03-24 16:55:00,53.7,26.7,30.07,NNW,336,12.7,12.7,35,0.00,,,0.00,WeatherDisplay:10.37,2013-03-24 21:55:00,
2013-03-24 17:00:00,53.4,27.1,30.07,North,356,11.5,11.5,36,0.00,,,0.00,WeatherDisplay:10.37,2013-03-24 22:00:00,
2013-03-24 17:05:00,53.8,27.4,30.07,West,263,11.5,11.5,36,0.00,,,0.00,WeatherDisplay:10.37,2013-03-24 22:05:00,
2013-03-24 17:10:00,53.8,27.4,30.07,NNW,342,10.4,10.4,36,0.00,,,0.00,WeatherDisplay:10.37,2013-03-24 22:10:00,
2013-03-24 17:15:00,53.6,26.6,30.07,NW,311,11.5,11.5,35,0.00,,,0.00,WeatherDisplay:10.37,2013-03-24 22:15:00,
2013-03-24 17:20:00,53.6,27.3,30.07,North,359,11.5,11.5,36,0.00,,,0.00,WeatherDisplay:10.37,2013-03-24 22:20:00,
2013-03-24 17:25:00,53.7,26.7,30.07,NNE,12,11.5,11.5,35,0.00,,,0.00,WeatherDisplay:10.37,2013-03-24 22:25:00,
2013-03-24 17:30:00,53.6,26.6,30.07,North,8,11.5,11.5,35,0.00,,,0.00,WeatherDisplay:10.37,2013-03-24 22:30:00,
2013-03-24 17:35:00,53.7,26.7,30.07,North,354,9.2,9.2,35,0.00,,,0.00,WeatherDisplay:10.37,2013-03-24 22:35:00,
2013-03-24 17:40:00,53.7,26.7,30.07,NNE,13,11.5,11.5,35,0.00,,,0.00,WeatherDisplay:10.37,2013-03-24 22:40:00,
2013-03-24 17:45:00,53.5,27.2,30.07,NW,307,15.0,15.0,36,0.00,,,0.00,WeatherDisplay:10.37,2013-03-24 22:45:00,
2013-03-24 17:50:00,53.5,26.5,30.07,WNW,288,5.8,5.8,35,0.00,,,0.00,WeatherDisplay:10.37,2013-03-24 22:50:00,
2013-03-24 17:55:00,53.6,25.9,30.06,WNW,297,8.1,8.1,34,0.00,,,0.00,WeatherDisplay:10.37,2013-03-24 22:55:00,
2013-03-24 18:00:00,53.5,26.5,30.07,NNE,19,11.5,11.5,35,0.00,,,0.00,WeatherDisplay:10.37,2013-03-24 23:00:00,
2013-03-24 18:05:00,52.8,26.6,30.06,NNE,12,11.5,11.5,36,0.00,,,0.00,WeatherDisplay:10.37,2013-03-24 23:05:00,
2013-03-24 18:11:00,52.9,26.6,30.06,WNW,301,11.5,11.5,36,0.00,,,0.00,WeatherDisplay:10.37,2013-03-24 23:11:00,
2013-03-24 18:16:00,53.1,25.4,30.07,WNW,301,7.0,7.0,34,0.00,,,0.00,WeatherDisplay:10.37,2013-03-24 23:16:00,
2013-03-24 18:21:00,53.1,25.4,30.06,NNW,340,6.9,6.9,34,0.00,,,0.00,WeatherDisplay:10.37,2013-03-24 23:21:00,
2013-03-24 18:26:00,52.9,24.5,30.07,WNW,300,15.0,15.0,33,0.00,,,0.00,WeatherDisplay:10.37,2013-03-24 23:26:00,
2013-03-24 18:31:00,52.8,24.5,30.07,NW,307,6.9,6.9,33,0.00,,,0.00,WeatherDisplay:10.37,2013-03-24 23:31:00,
2013-03-24 18:36:00,52.6,25.0,30.07,NNE,18,7.0,7.0,34,0.00,,,0.00,WeatherDisplay:10.37,2013-03-24 23:36:00,
2013-03-24 18:41:00,52.2,24.6,30.07,North,5,11.5,11.5,34,0.00,,,0.00,WeatherDisplay:10.37,2013-03-24 23:41:00,
2013-03-24 18:46:00,52.0,23.8,30.07,North,354,9.2,9.2,33,0.00,,,0.00,WeatherDisplay:10.37,2013-03-24 23:46:00,
2013-03-24 18:51:00,51.7,24.2,30.08,West,260,11.5,11.5,34,0.00,,,0.00,WeatherDisplay:10.37,2013-03-24 23:51:00,
2013-03-24 18:56:00,51.5,24.0,30.07,NNW,333,7.0,7.0,34,0.00,,,0.00,WeatherDisplay:10.37,2013-03-24 23:56:00,
2013-03-24 19:01:00,51.3,23.1,30.08,NNE,22,9.2,9.2,33,0.00,,,0.00,WeatherDisplay:10.37,2013-03-25 00:01:00,
2013-03-24 19:06:00,51.2,23.8,30.08,North,351,6.0,6.0,34,0.00,,,0.00,WeatherDisplay:10.37,2013-03-25 00:06:00,
2013-03-24 19:11:00,50.9,23.5,30.08,NW,314,9.2,9.2,34,0.00,,,0.00,WeatherDisplay:10.37,2013-03-25 00:11:00,
2013-03-24 19:16:00,50.8,23.4,30.08,North,351,6.0,6.0,34,0.00,,,0.00,WeatherDisplay:10.37,2013-03-25 00:16:00,
2013-03-24 19:21:00,50.4,22.3,30.09,NW,312,8.1,8.1,33,0.00,,,0.00,WeatherDisplay:10.37,2013-03-25 00:21:00,
2013-03-24 19:27:00,50.1,22.1,30.09,WNW,288,8.1,8.1,33,0.00,,,0.00,WeatherDisplay:10.37,2013-03-25 00:27:00,
2013-03-24 19:32:00,50.0,22.7,30.09,WSW,243,10.4,10.4,34,0.00,,,0.00,WeatherDisplay:10.37,2013-03-25 00:32:00,
2013-03-24 19:37:00,49.7,22.4,30.09,WNW,297,8.1,8.1,34,0.00,,,0.00,WeatherDisplay:10.37,2013-03-25 00:37:00,
2013-03-24 19:42:00,49.6,21.6,30.09,West,279,7.0,7.0,33,0.00,,,0.00,WeatherDisplay:10.37,2013-03-25 00:42:00,
2013-03-24 19:47:00,49.4,22.2,30.09,West,269,9.2,9.2,34,0.00,,,0.00,WeatherDisplay:10.37,2013-03-25 00:47:00,
2013-03-24 19:52:00,49.1,21.9,30.10,NNW,343,8.1,8.1,34,0.00,,,0.00,WeatherDisplay:10.37,2013-03-25 00:52:00,
2013-03-24 19:57:00,48.8,21.6,30.10,West,259,5.8,5.8,34,0.00,,,0.00,WeatherDisplay:10.37,2013-03-25 00:57:00,
2013-03-24 20:02:00,48.5,22.1,30.10,NNW,348,5.8,5.8,35,0.00,,,0.00,WeatherDisplay:10.37,2013-03-25 01:02:00,
2013-03-24 20:07:00,48.1,22.4,30.10,WNW,283,3.5,3.5,36,0.00,,,0.00,WeatherDisplay:10.37,2013-03-25 01:07:00,
2013-03-24 20:12:00,47.8,22.1,30.10,NNE,20,6.9,6.9,36,0.00,,,0.00,WeatherDisplay:10.37,2013-03-25 01:12:00,
2013-03-24 20:17:00,47.8,22.1,30.11,NNW,336,4.6,4.6,36,0.00,,,0.00,WeatherDisplay:10.37,2013-03-25 01:17:00,
2013-03-24 20:22:00,47.5,22.5,30.11,North,358,5.8,5.8,37,0.00,,,0.00,WeatherDisplay:10.37,2013-03-25 01:22:00,
2013-03-24 20:27:00,47.3,22.9,30.11,North,351,5.8,5.8,38,0.00,,,0.00,WeatherDisplay:10.37,2013-03-25 01:27:00,
2013-03-24 20:32:00,47.2,22.2,30.11,NNW,345,7.0,7.0,37,0.00,,,0.00,WeatherDisplay:10.37,2013-03-25 01:32:00,
2013-03-24 20:37:00,47.1,22.1,30.11,NNW,333,6.9,6.9,37,0.00,,,0.00,WeatherDisplay:10.37,2013-03-25 01:37:00,
2013-03-24 20:42:00,46.9,22.0,30.11,North,6,5.8,5.8,37,0.00,,,0.00,WeatherDisplay:10.37,2013-03-25 01:42:00,
2013-03-24 20:48:00,46.8,21.9,30.11,WNW,283,6.9,6.9,37,0.00,,,0.00,WeatherDisplay:10.37,2013-03-25 01:48:00,
2013-03-24 20:53:00,46.7,21.1,30.12,NNW,345,9.2,9.2,36,0.00,,,0.00,WeatherDisplay:10.37,2013-03-25 01:53:00,
2013-03-24 20:58:00,46.5,20.9,30.12,NNW,336,5.8,5.8,36,0.00,,,0.00,WeatherDisplay:10.37,2013-03-25 01:58:00,
2013-03-24 21:03:00,46.3,20.8,30.12,North,11,6.0,6.0,36,0.00,CLR,,0.00,WeatherDisplay:10.37,2013-03-25 02:03:00,
2013-03-24 21:08:00,46.1,19.9,30.13,North,4,8.0,8.0,35,0.00,CLR,,0.00,WeatherDisplay:10.37,2013-03-25 02:08:00,
2013-03-24 21:13:00,46.0,19.8,30.13,NNE,13,5.8,5.8,35,0.00,CLR,,0.00,WeatherDisplay:10.37,2013-03-25 02:13:00,
2013-03-24 21:18:00,45.9,19.8,30.13,NNE,32,12.0,12.0,35,0.00,CLR,,0.00,WeatherDisplay:10.37,2013-03-25 02:18:00,
2013-03-24 21:23:00,45.7,19.6,30.13,NNE,19,6.9,6.9,35,0.00,CLR,,0.00,WeatherDisplay:10.37,2013-03-25 02:23:00,
2013-03-24 21:28:00,45.6,19.5,30.14,NNE,14,9.2,9.2,35,0.00,CLR,,0.00,WeatherDisplay:10.37,2013-03-25 02:28:00,
2013-03-24 21:33:00,45.4,20.0,30.14,NW,313,6.9,6.9,36,0.00,CLR,,0.00,WeatherDisplay:10.37,2013-03-25 02:33:00,
2013-03-24 21:38:00,45.3,19.9,30.14,NNW,330,11.5,11.5,36,0.00,CLR,,0.00,WeatherDisplay:10.37,2013-03-25 02:38:00,
2013-03-24 21:43:00,45.1,20.3,30.14,NNW,333,6.9,6.9,37,0.00,CLR,,0.00,WeatherDisplay:10.37,2013-03-25 02:43:00,
2013-03-24 21:48:00,45.0,20.3,30.14,North,9,11.5,11.5,37,0.00,CLR,,0.00,WeatherDisplay:10.37,2013-03-25 02:48:00,
2013-03-24 21:53:00,44.9,20.2,30.14,North,6,6.9,6.9,37,0.00,CLR,,0.00,WeatherDisplay:10.37,2013-03-25 02:53:00,
2013-03-24 21:58:00,44.7,20.6,30.14,NNW,346,8.1,8.1,38,0.00,CLR,,0.00,WeatherDisplay:10.37,2013-03-25 02:58:00,
2013-03-24 22:03:00,44.6,20.5,30.15,NNE,27,8.1,8.1,38,0.00,CLR,,0.00,WeatherDisplay:10.37,2013-03-25 03:03:00,
2013-03-24 22:08:00,44.3,20.9,30.15,NNW,347,6.9,6.9,39,0.00,CLR,,0.00,WeatherDisplay:10.37,2013-03-25 03:08:00,
2013-03-24 22:13:00,44.1,20.7,30.15,NE,39,4.6,4.6,39,0.00,CLR,,0.00,WeatherDisplay:10.37,2013-03-25 03:13:00,
2013-03-24 22:18:00,43.9,20.5,30.15,NE,43,7.0,7.0,39,0.00,CLR,,0.00,WeatherDisplay:10.37,2013-03-25 03:18:00,
2013-03-24 22:23:00,43.9,20.5,30.16,NNE,27,9.2,9.2,39,0.00,CLR,,0.00,WeatherDisplay:10.37,2013-03-25 03:23:00,
2013-03-24 22:28:00,43.6,20.8,30.16,NW,312,5.8,5.8,40,0.00,CLR,,0.00,WeatherDisplay:10.37,2013-03-25 03:28:00,
2013-03-24 22:34:00,43.4,20.7,30.16,NNE,16,12.0,12.0,40,0.00,CLR,,0.00,WeatherDisplay:10.37,2013-03-25 03:34:00,
2013-03-24 22:39:00,43.3,20.6,30.17,North,349,8.1,8.1,40,0.00,CLR,,0.00,WeatherDisplay:10.37,2013-03-25 03:39:00,
2013-03-24 22:44:00,43.0,20.9,30.17,NW,318,8.1,8.1,41,0.00,CLR,,0.00,WeatherDisplay:10.37,2013-03-25 03:44:00,
2013-03-24 22:49:00,42.8,21.3,30.17,NNW,333,5.8,5.8,42,0.00,CLR,,0.00,WeatherDisplay:10.37,2013-03-25 03:49:00,
2013-03-24 22:54:00,42.7,21.2,30.17,NNE,18,10.4,10.4,42,0.00,CLR,,0.00,WeatherDisplay:10.37,2013-03-25 03:54:00,
2013-03-24 22:59:00,42.6,21.1,30.17,North,5,10.4,10.4,42,0.00,CLR,,0.00,WeatherDisplay:10.37,2013-03-25 03:59:00,
2013-03-24 23:00:00,42.6,21.1,30.17,NNE,25,8.1,8.1,42,0.00,CLR,,0.00,WeatherDisplay:10.37,2013-03-25 04:00:00,
2013-03-24 23:05:00,42.6,21.1,30.18,NNW,345,9.2,9.2,42,0.00,CLR,,0.00,WeatherDisplay:10.37,2013-03-25 04:05:00,
2013-03-24 23:10:00,42.4,21.5,30.18,NNE,16,4.6,4.6,43,0.00,CLR,,0.00,WeatherDisplay:10.37,2013-03-25 04:10:00,
2013-03-24 23:15:00,42.1,21.2,30.18,North,7,12.7,12.7,43,0.00,CLR,,0.00,WeatherDisplay:10.37,2013-03-25 04:15:00,
2013-03-24 23:20:00,42.0,21.6,30.18,North,5,9.2,9.2,44,0.00,CLR,,0.00,WeatherDisplay:10.37,2013-03-25 04:20:00,
2013-03-24 23:25:00,41.7,21.4,30.18,North,7,9.2,9.2,44,0.00,CLR,,0.00,WeatherDisplay:10.37,2013-03-25 04:25:00,
2013-03-24 23:30:00,41.4,21.6,30.18,NNW,333,3.5,3.5,45,0.00,CLR,,0.00,WeatherDisplay:10.37,2013-03-25 04:30:00,
2013-03-24 23:35:00,41.2,21.4,30.18,North,356,8.1,8.1,45,0.00,CLR,,0.00,WeatherDisplay:10.37,2013-03-25 04:35:00,
2013-03-24 23:40:00,41.1,21.9,30.18,NNE,25,8.0,8.0,46,0.00,CLR,,0.00,WeatherDisplay:10.37,2013-03-25 04:40:00,
2013-03-24 23:45:00,40.9,21.7,30.18,North,8,3.5,3.5,46,0.00,CLR,,0.00,WeatherDisplay:10.37,2013-03-25 04:45:00,
2013-03-24 23:50:00,40.6,21.9,30.19,NNE,30,5.0,5.0,47,0.00,CLR,,0.00,WeatherDisplay:10.37,2013-03-25 04:50:00,
2013-03-24 23:55:00,40.6,21.9,30.19,North,354,5.8,5.8,47,0.00,CLR,,0.00,WeatherDisplay:10.37,2013-03-25 04:55:00,